ENTC/TOS METAR and TAF weather

Enter ICAO airport designator
Station Type Date Time Source
ENTC METAR 2024/07/14 13:50 UTC NOAA

ENTC 141350Z 26007KT CAVOK 15/10 Q1015 NOSIG RMK WIND 2600FT 23015KT


Station Type Date Time Source
ENTC Decoded METAR 2024/07/14 13:50 UTC NOAA

Tromso / Langnes, Norway (ENTC) 69-41N 018-55E 10M
Jul 14, 2024 - 09:50 AM EDT / 2024.07.14 1350 UTC
Wind: from the W (260 degrees) at 8 MPH (7 KT):0
Visibility: greater than 7 mile(s):0
Temperature: 59 F (15 C)
Dew Point: 50 F (10 C)
Relative Humidity: 72%
Pressure (altimeter): 29.97 in. Hg (1015 hPa)
ob: ENTC 141350Z 26007KT CAVOK 15/10 Q1015 NOSIG RMK WIND 2600FT 23015KT
cycle: 14

Station Type Date Time Source
ENTC TAF 2024/07/14 12:36 UTC NOAA